createdAt,value
2022-08-16T00:00:03.719Z,98857.75
2022-08-16T00:02:52.579Z,98854.81
2022-08-16T00:05:39.066Z,98863.63
2022-08-16T00:08:37.110Z,98867.41
2022-08-16T00:11:24.136Z,98869.97
2022-08-16T00:14:13.681Z,98864.97
2022-08-16T00:17:06.097Z,98874.78
2022-08-16T00:20:08.994Z,98873.16
2022-08-16T00:22:58.972Z,98874.53
2022-08-16T00:26:36.160Z,98876.78
2022-08-16T00:28:54.884Z,98887.25
2022-08-16T00:31:59.018Z,98877.47
2022-08-16T00:34:53.562Z,98876.75
2022-08-16T00:37:58.207Z,98877.22
2022-08-16T00:40:53.949Z,98869.97
2022-08-16T00:43:43.134Z,98881.31
2022-08-16T00:46:37.619Z,98881.03
2022-08-16T00:49:44.509Z,98880.56
2022-08-16T00:52:31.435Z,98884.81
2022-08-16T00:55:18.785Z,98885.81
2022-08-16T00:58:13.142Z,98882.50
2022-08-16T01:01:08.135Z,98893.84
2022-08-16T01:03:55.433Z,98890.97
2022-08-16T01:06:49.094Z,98893.78
2022-08-16T01:09:47.366Z,98895.41
2022-08-16T01:12:35.808Z,98890.88
2022-08-16T01:15:22.419Z,98892.16
2022-08-16T01:18:38.892Z,98897.19
2022-08-16T01:21:22.121Z,98893.00
2022-08-16T01:24:52.831Z,98888.66
2022-08-16T01:27:29.151Z,98893.06
2022-08-16T01:30:26.714Z,98887.53
2022-08-16T01:33:15.105Z,98894.41
2022-08-16T01:36:12.122Z,98895.25
2022-08-16T01:38:59.677Z,98892.25
2022-08-16T01:41:46.274Z,98892.50
2022-08-16T01:44:37.284Z,98893.78
2022-08-16T01:47:25.444Z,98891.09
2022-08-16T01:50:42.605Z,98897.69
2022-08-16T01:53:21.927Z,98893.56
2022-08-16T01:56:23.446Z,98897.75
2022-08-16T01:59:15.790Z,98885.34
2022-08-16T02:02:05.349Z,98887.44
2022-08-16T02:05:13.868Z,98887.16
2022-08-16T02:08:01.193Z,98890.91
2022-08-16T02:10:48.418Z,98899.84
2022-08-16T02:13:36.046Z,98890.25
2022-08-16T02:16:28.949Z,98893.66
2022-08-16T02:19:19.884Z,98895.28
2022-08-16T02:22:35.167Z,98884.88
2022-08-16T02:25:17.497Z,98882.34
2022-08-16T02:28:05.115Z,98881.59
2022-08-16T02:30:57.188Z,98877.00
2022-08-16T02:33:50.188Z,98883.31
2022-08-16T02:36:47.795Z,98883.91
2022-08-16T02:39:37.407Z,98884.78
2022-08-16T02:42:24.003Z,98884.00
2022-08-16T02:45:10.808Z,98881.84
2022-08-16T02:48:01.603Z,98884.09
2022-08-16T02:51:11.001Z,98874.97
2022-08-16T02:53:58.495Z,98874.66
2022-08-16T02:56:48.064Z,98878.66
2022-08-16T02:59:41.478Z,98870.94
2022-08-16T03:02:31.999Z,98881.88
2022-08-16T03:05:19.031Z,98886.41
2022-08-16T03:08:06.990Z,98880.56
2022-08-16T03:11:18.079Z,98877.44
2022-08-16T03:14:08.933Z,98888.69
2022-08-16T03:16:59.679Z,98878.25
2022-08-16T03:19:59.583Z,98878.66
2022-08-16T03:22:48.740Z,98886.16
2022-08-16T03:25:43.988Z,98888.50
2022-08-16T03:28:32.175Z,98894.31
2022-08-16T03:31:19.437Z,98901.41
2022-08-16T03:34:05.766Z,98898.66
2022-08-16T03:36:52.670Z,98909.25
2022-08-16T03:39:42.660Z,98907.97
2022-08-16T03:42:29.733Z,98918.72
2022-08-16T03:45:16.490Z,98922.41
2022-08-16T03:48:07.203Z,98929.53
2022-08-16T03:51:00.118Z,98922.41
2022-08-16T03:54:00.824Z,98922.22
2022-08-16T03:56:57.559Z,98920.06
2022-08-16T03:59:45.247Z,98928.75
2022-08-16T04:02:32.023Z,98927.25
2022-08-16T04:05:19.146Z,98931.38
2022-08-16T04:08:22.412Z,98928.72
2022-08-16T04:11:11.363Z,98934.09
2022-08-16T04:14:32.481Z,98933.31
2022-08-16T04:17:08.914Z,98932.41
2022-08-16T04:19:58.397Z,98934.59
2022-08-16T04:22:48.888Z,98935.50
2022-08-16T04:25:36.779Z,98938.16
2022-08-16T04:28:51.845Z,98938.81
2022-08-16T04:31:30.506Z,98935.16
2022-08-16T04:34:17.534Z,98936.31
2022-08-16T04:37:06.637Z,98948.16
2022-08-16T04:39:55.671Z,98940.69
2022-08-16T04:42:45.877Z,98935.75
2022-08-16T04:45:35.825Z,98947.63
2022-08-16T04:48:32.887Z,98957.00
2022-08-16T04:51:21.092Z,98956.22
2022-08-16T04:54:08.221Z,98954.59
2022-08-16T04:56:54.665Z,98950.94
2022-08-16T04:59:43.987Z,98950.97
2022-08-16T05:02:41.902Z,98945.00
2022-08-16T05:05:32.875Z,98952.81
2022-08-16T05:08:28.855Z,98959.59
2022-08-16T05:11:17.058Z,98954.03
2022-08-16T05:14:06.935Z,98958.25
2022-08-16T05:16:53.770Z,98970.88
2022-08-16T05:19:40.797Z,98978.06
2022-08-16T05:22:35.702Z,98979.87
2022-08-16T05:25:23.578Z,98987.06
2022-08-16T05:28:37.450Z,98980.31
2022-08-16T05:31:29.461Z,98990.38
2022-08-16T05:34:19.525Z,98982.72
2022-08-16T05:37:07.307Z,98986.97
2022-08-16T05:39:55.483Z,98985.09
2022-08-16T05:42:46.122Z,98987.66
2022-08-16T05:45:34.461Z,98987.97
2022-08-16T05:48:26.785Z,98989.25
2022-08-16T05:51:13.482Z,98986.87
2022-08-16T05:54:25.273Z,98990.81
2022-08-16T05:57:13.357Z,98990.28
2022-08-16T06:00:04.438Z,98983.41
2022-08-16T06:02:58.742Z,98985.78
2022-08-16T06:05:48.916Z,98986.75
2022-08-16T06:08:45.034Z,98991.91
2022-08-16T06:11:33.674Z,98984.41
2022-08-16T06:14:20.691Z,98987.25
2022-08-16T06:17:07.989Z,98985.28
2022-08-16T06:19:54.522Z,98980.00
2022-08-16T06:22:47.940Z,98969.50
2022-08-16T06:25:52.962Z,98984.84
2022-08-16T06:28:41.906Z,98967.62
2022-08-16T06:31:28.613Z,98969.72
2022-08-16T06:34:54.236Z,98963.38
2022-08-16T06:37:23.590Z,98963.50
2022-08-16T06:40:12.973Z,98952.88
2022-08-16T06:43:02.491Z,98948.38
2022-08-16T06:45:49.504Z,98945.66
2022-08-16T06:48:37.459Z,98925.47
2022-08-16T06:51:46.407Z,98940.84
2022-08-16T06:54:36.298Z,98922.47
2022-08-16T06:57:24.523Z,98937.69
2022-08-16T07:00:24.497Z,98934.66
2022-08-16T07:03:26.889Z,98947.03
2022-08-16T07:06:15.300Z,98947.28
2022-08-16T07:09:02.519Z,98950.59
2022-08-16T07:11:56.288Z,98974.13
2022-08-16T07:14:50.806Z,98970.97
2022-08-16T07:17:37.833Z,98983.09
2022-08-16T07:20:30.140Z,99002.37
2022-08-16T07:23:37.304Z,99001.94
2022-08-16T07:26:26.199Z,99009.53
2022-08-16T07:29:12.421Z,99009.84
2022-08-16T07:32:01.039Z,99013.50
2022-08-16T07:34:49.083Z,99021.03
2022-08-16T07:37:36.040Z,99012.34
2022-08-16T07:40:58.112Z,99019.28
2022-08-16T07:43:40.511Z,99019.50
2022-08-16T07:46:38.877Z,99022.28
2022-08-16T07:49:27.103Z,99032.91
2022-08-16T07:52:20.623Z,99019.13
2022-08-16T07:55:08.593Z,99015.03
2022-08-16T07:58:00.646Z,99022.81
2022-08-16T08:00:50.827Z,99023.59
2022-08-16T08:03:38.842Z,99020.34
2022-08-16T08:06:29.623Z,99019.47
2022-08-16T08:09:16.771Z,99022.91
2022-08-16T08:12:05.513Z,99023.63
2022-08-16T08:14:53.474Z,99029.78
2022-08-16T08:17:42.830Z,99032.28
2022-08-16T08:20:31.032Z,99032.59
2022-08-16T08:23:21.182Z,99030.47
2022-08-16T08:26:17.738Z,99031.22
2022-08-16T08:29:05.181Z,99035.16
2022-08-16T08:31:55.277Z,99041.47
2022-08-16T08:34:42.183Z,99040.41
2022-08-16T08:37:54.116Z,99043.81
2022-08-16T08:40:41.490Z,99041.31
2022-08-16T08:43:28.278Z,99034.66
2022-08-16T08:46:18.187Z,99035.09
2022-08-16T08:49:08.757Z,99029.16
2022-08-16T08:51:56.463Z,99028.06
2022-08-16T08:54:44.631Z,99025.44
2022-08-16T08:57:37.288Z,99022.16
2022-08-16T09:00:30.214Z,99021.28
2022-08-16T09:03:17.334Z,99013.34
2022-08-16T09:06:05.577Z,99014.09
2022-08-16T09:08:55.134Z,99020.97
2022-08-16T09:11:49.574Z,99023.59
2022-08-16T09:14:49.696Z,99016.28
2022-08-16T09:17:49.225Z,99016.19
2022-08-16T09:20:59.294Z,99011.56
2022-08-16T09:23:45.465Z,99007.38
2022-08-16T09:26:45.548Z,99002.41
2022-08-16T09:29:44.969Z,98992.81
2022-08-16T09:32:32.453Z,98984.22
2022-08-16T09:35:18.634Z,98985.00
2022-08-16T09:38:05.753Z,98976.50
2022-08-16T09:40:57.387Z,98993.34
2022-08-16T09:43:58.481Z,98990.28
2022-08-16T09:46:49.552Z,98980.75
2022-08-16T09:49:37.194Z,98991.41
2022-08-16T09:52:24.075Z,98977.81
2022-08-16T09:55:12.613Z,98984.78
2022-08-16T09:58:00.088Z,98982.72
2022-08-16T10:00:46.402Z,98981.53
2022-08-16T10:03:33.225Z,98972.81
2022-08-16T10:06:21.924Z,98971.56
2022-08-16T10:09:11.288Z,98966.22
2022-08-16T10:12:19.482Z,98969.78
2022-08-16T10:15:08.797Z,98963.31
2022-08-16T10:19:00.483Z,98964.97
2022-08-16T10:21:15.721Z,98963.22
2022-08-16T10:24:02.219Z,98969.47
2022-08-16T10:27:18.443Z,98960.62
2022-08-16T10:30:01.136Z,98964.59
2022-08-16T10:32:53.264Z,98961.06
2022-08-16T10:35:46.589Z,98958.28
2022-08-16T10:38:36.492Z,98959.84
2022-08-16T10:41:25.273Z,98955.16
2022-08-16T10:44:14.283Z,98961.94
2022-08-16T10:47:04.449Z,98951.34
2022-08-16T10:49:51.678Z,98968.50
2022-08-16T10:55:46.051Z,98959.34
2022-08-16T10:58:34.281Z,98954.25
2022-08-16T11:01:40.175Z,98960.09
2022-08-16T11:05:04.635Z,98948.06
2022-08-16T11:07:52.257Z,98942.22
2022-08-16T11:11:04.527Z,98940.44
2022-08-16T11:14:05.962Z,98945.62
2022-08-16T11:17:10.711Z,98955.59
2022-08-16T11:20:40.791Z,98947.53
2022-08-16T11:23:05.532Z,98936.53
2022-08-16T11:26:07.512Z,98935.88
2022-08-16T11:29:13.913Z,98937.59
2022-08-16T11:32:02.176Z,98951.84
2022-08-16T11:35:09.924Z,98954.63
2022-08-16T11:38:24.055Z,98961.53
2022-08-16T11:41:04.038Z,98970.50
2022-08-16T11:43:51.035Z,98967.00
2022-08-16T11:46:44.374Z,98962.84
2022-08-16T11:49:32.303Z,98941.16
2022-08-16T11:52:18.807Z,98974.59
2022-08-16T11:55:10.773Z,98962.22
2022-08-16T11:57:57.384Z,98960.00
2022-08-16T12:00:51.696Z,98967.94
2022-08-16T12:03:41.804Z,98967.19
2022-08-16T12:06:30.936Z,98957.16
2022-08-16T12:09:20.310Z,98953.72
2022-08-16T12:12:07.437Z,98958.50
2022-08-16T12:14:59.906Z,98959.25
2022-08-16T12:17:47.377Z,98960.91
2022-08-16T12:20:36.589Z,98954.53
2022-08-16T12:23:23.246Z,98951.06
2022-08-16T12:26:10.487Z,98940.03
2022-08-16T12:28:57.670Z,98941.31
2022-08-16T12:32:00.892Z,98939.31
2022-08-16T12:34:52.908Z,98939.13
2022-08-16T12:37:41.555Z,98947.56
2022-08-16T12:40:32.263Z,98958.44
2022-08-16T12:43:21.910Z,98971.72
2022-08-16T12:46:11.506Z,98978.47
2022-08-16T12:49:00.627Z,98975.19
2022-08-16T12:51:58.161Z,98977.13
2022-08-16T12:54:46.393Z,98985.91
2022-08-16T12:57:41.938Z,98979.22
2022-08-16T13:00:33.001Z,98975.53
2022-08-16T13:03:21.519Z,98960.75
2022-08-16T13:06:08.844Z,98964.22
2022-08-16T13:08:56.748Z,98964.00
2022-08-16T13:11:55.214Z,98947.94
2022-08-16T13:14:47.567Z,98956.91
2022-08-16T13:17:36.480Z,98952.50
2022-08-16T13:20:29.364Z,98942.66
2022-08-16T13:23:16.489Z,98946.06
2022-08-16T13:26:04.540Z,98943.38
2022-08-16T13:28:51.774Z,98930.97
2022-08-16T13:31:38.472Z,98932.53
2022-08-16T13:34:25.641Z,98937.78
2022-08-16T13:37:11.930Z,98932.31
2022-08-16T13:40:00.843Z,98940.31
2022-08-16T13:42:47.942Z,98936.50
2022-08-16T13:45:36.358Z,98933.09
2022-08-16T13:48:25.958Z,98933.97
2022-08-16T13:51:18.814Z,98930.81
2022-08-16T13:54:05.940Z,98930.66
2022-08-16T13:56:52.437Z,98929.69
2022-08-16T13:59:42.665Z,98923.56
2022-08-16T14:02:29.162Z,98931.66
2022-08-16T14:05:21.985Z,98924.78
2022-08-16T14:08:08.500Z,98919.03
2022-08-16T14:10:55.566Z,98916.69
2022-08-16T14:13:43.765Z,98919.19
2022-08-16T14:16:34.031Z,98909.31
2022-08-16T14:19:22.330Z,98907.78
2022-08-16T14:22:14.766Z,98904.41
2022-08-16T14:25:19.958Z,98903.53
2022-08-16T14:28:06.403Z,98904.84
2022-08-16T14:30:56.657Z,98904.84
2022-08-16T14:33:43.100Z,98901.56
2022-08-16T14:36:30.169Z,98901.63
2022-08-16T14:39:16.967Z,98902.63
2022-08-16T14:42:08.259Z,98911.28
2022-08-16T14:44:57.347Z,98905.81
2022-08-16T14:47:46.387Z,98909.06
2022-08-16T14:50:36.548Z,98906.22
2022-08-16T14:53:23.815Z,98909.72
2022-08-16T14:56:17.587Z,98909.97
2022-08-16T14:59:16.323Z,98906.09
2022-08-16T15:02:03.360Z,98905.19
2022-08-16T15:04:51.289Z,98908.63
2022-08-16T15:07:40.141Z,98914.94
2022-08-16T15:10:39.124Z,98922.62
2022-08-16T15:13:32.310Z,98915.50
2022-08-16T15:16:18.620Z,98916.84
2022-08-16T15:19:05.523Z,98922.69
2022-08-16T15:21:53.911Z,98930.59
2022-08-16T15:24:41.462Z,98923.75
2022-08-16T15:27:33.594Z,98937.38
2022-08-16T15:30:57.213Z,98933.91
2022-08-16T15:33:32.191Z,98934.22
2022-08-16T15:36:21.526Z,98925.41
2022-08-16T15:39:30.210Z,98939.00
2022-08-16T15:42:27.249Z,98945.03
2022-08-16T15:45:14.104Z,98942.22
2022-08-16T15:48:01.047Z,98935.69
2022-08-16T15:50:51.430Z,98941.03
2022-08-16T15:53:42.020Z,98945.62
2022-08-16T15:56:28.988Z,98940.47
2022-08-16T15:59:16.169Z,98938.34
2022-08-16T16:02:02.547Z,98937.62
2022-08-16T16:04:48.864Z,98934.19
2022-08-16T16:07:36.016Z,98940.56
2022-08-16T16:10:22.582Z,98950.75
2022-08-16T16:13:16.255Z,98953.00
2022-08-16T16:16:03.333Z,98962.44
2022-08-16T16:18:49.904Z,98969.63
2022-08-16T16:21:36.233Z,98967.16
2022-08-16T16:24:30.704Z,98968.56
2022-08-16T16:27:18.030Z,98966.16
2022-08-16T16:30:32.580Z,98961.34
2022-08-16T16:33:20.953Z,98961.00
2022-08-16T16:36:09.651Z,98950.88
2022-08-16T16:38:55.965Z,98962.91
2022-08-16T16:41:42.029Z,98966.50
2022-08-16T16:44:33.528Z,98959.31
2022-08-16T16:47:22.617Z,98962.66
2022-08-16T16:50:10.226Z,98966.44
2022-08-16T16:52:57.058Z,98972.97
2022-08-16T16:55:47.507Z,98963.22
2022-08-16T16:58:56.728Z,98967.84
2022-08-16T17:02:00.295Z,98954.94
2022-08-16T17:04:53.782Z,98953.00
2022-08-16T17:07:41.212Z,98947.13
2022-08-16T17:10:46.618Z,98959.53
2022-08-16T17:13:35.176Z,98967.09
2022-08-16T17:16:22.798Z,98970.72
2022-08-16T17:19:19.615Z,98973.81
2022-08-16T17:22:14.329Z,98976.28
2022-08-16T17:25:01.487Z,98982.25
2022-08-16T17:27:50.756Z,98982.84
2022-08-16T17:30:45.333Z,98984.81
2022-08-16T17:33:36.931Z,98991.69
2022-08-16T17:36:35.881Z,99001.75
2022-08-16T17:39:23.826Z,99025.09
2022-08-16T17:42:15.721Z,99022.69
2022-08-16T17:45:01.950Z,99025.41
2022-08-16T17:47:49.172Z,99025.97
2022-08-16T17:50:36.047Z,99028.34
2022-08-16T17:53:23.214Z,99037.66
2022-08-16T17:56:10.428Z,99042.38
2022-08-16T17:58:57.152Z,99047.44
2022-08-16T18:01:43.203Z,99045.97
2022-08-16T18:04:48.958Z,99039.16
2022-08-16T18:07:37.373Z,99052.56
2022-08-16T18:10:33.243Z,99063.13
2022-08-16T18:13:22.547Z,99065.09
2022-08-16T18:16:11.416Z,99063.31
2022-08-16T18:18:58.798Z,99068.09
2022-08-16T18:22:05.109Z,99076.59
2022-08-16T18:24:53.081Z,99083.12
2022-08-16T18:27:39.376Z,99083.62
2022-08-16T18:30:26.327Z,99080.13
2022-08-16T18:33:13.605Z,99077.34
2022-08-16T18:35:59.814Z,99074.56
2022-08-16T18:38:46.029Z,99079.91
2022-08-16T18:41:36.936Z,99078.00
2022-08-16T18:44:29.208Z,99084.66
2022-08-16T18:47:19.082Z,99074.66
2022-08-16T18:50:06.040Z,99078.63
2022-08-16T18:53:00.987Z,99074.66
2022-08-16T18:55:48.479Z,99078.34
2022-08-16T18:58:35.240Z,99081.72
2022-08-16T19:01:21.549Z,99084.91
2022-08-16T19:04:55.076Z,99081.38
2022-08-16T19:07:20.143Z,99076.38
2022-08-16T19:10:08.786Z,99080.91
2022-08-16T19:12:55.572Z,99077.25
2022-08-16T19:15:44.086Z,99081.81
2022-08-16T19:18:36.897Z,99083.62
2022-08-16T19:21:23.169Z,99084.84
2022-08-16T19:24:17.557Z,99083.47
2022-08-16T19:27:05.895Z,99080.56
2022-08-16T19:29:54.374Z,99084.25
2022-08-16T19:32:44.521Z,99082.50
2022-08-16T19:35:32.474Z,99092.13
2022-08-16T19:38:18.938Z,99096.31
2022-08-16T19:41:05.607Z,99092.94
2022-08-16T19:43:51.990Z,99090.69
2022-08-16T19:46:43.545Z,99107.69
2022-08-16T19:49:29.964Z,99096.22
2022-08-16T19:52:26.018Z,99112.59
2022-08-16T19:55:19.354Z,99107.00
2022-08-16T19:58:09.875Z,99096.84
2022-08-16T20:00:56.544Z,99114.31
2022-08-16T20:03:43.140Z,99105.78
2022-08-16T20:06:38.086Z,99108.78
2022-08-16T20:09:25.384Z,99113.75
2022-08-16T20:12:14.267Z,99112.88
2022-08-16T20:15:01.908Z,99109.13
2022-08-16T20:17:48.861Z,99117.00
2022-08-16T20:20:35.438Z,99113.94
2022-08-16T20:23:24.861Z,99120.97
2022-08-16T20:26:11.822Z,99117.31
2022-08-16T20:28:58.371Z,99125.81
2022-08-16T20:31:44.739Z,99123.13
2022-08-16T20:34:31.212Z,99122.94
2022-08-16T20:37:18.316Z,99122.25
2022-08-16T20:40:28.361Z,99120.06
2022-08-16T20:43:14.965Z,99122.78
2022-08-16T20:46:00.978Z,99127.31
2022-08-16T20:48:47.441Z,99122.31
2022-08-16T20:51:46.765Z,99128.88
2022-08-16T20:54:36.801Z,99127.69
2022-08-16T20:57:23.103Z,99138.50
2022-08-16T21:00:11.534Z,99134.84
2022-08-16T21:03:01.392Z,99131.94
2022-08-16T21:05:47.540Z,99131.47
2022-08-16T21:08:52.754Z,99126.78
2022-08-16T21:11:40.407Z,99136.53
2022-08-16T21:14:28.020Z,99144.25
2022-08-16T21:17:16.081Z,99145.91
2022-08-16T21:20:02.869Z,99143.31
2022-08-16T21:22:58.046Z,99142.47
2022-08-16T21:25:59.145Z,99137.47
2022-08-16T21:28:45.991Z,99132.25
2022-08-16T21:31:32.412Z,99149.63
2022-08-16T21:34:18.643Z,99137.13
2022-08-16T21:37:05.558Z,99140.28
2022-08-16T21:39:52.007Z,99138.75
2022-08-16T21:42:40.272Z,99143.41
2022-08-16T21:45:26.610Z,99144.56
2022-08-16T21:48:13.460Z,99141.84
2022-08-16T21:50:59.898Z,99147.28
2022-08-16T21:53:45.983Z,99149.31
2022-08-16T21:56:32.388Z,99145.72
2022-08-16T21:59:18.700Z,99148.00
2022-08-16T22:02:05.432Z,99148.91
2022-08-16T22:04:52.323Z,99161.19
2022-08-16T22:07:38.830Z,99155.19
2022-08-16T22:11:07.219Z,99160.91
2022-08-16T22:13:31.822Z,99149.63
2022-08-16T22:16:18.472Z,99146.72
2022-08-16T22:19:05.180Z,99149.03
2022-08-16T22:21:51.798Z,99149.91
2022-08-16T22:24:37.925Z,99150.69
2022-08-16T22:27:24.424Z,99151.50
2022-08-16T22:30:12.372Z,99152.94
2022-08-16T22:33:00.324Z,99151.16
2022-08-16T22:35:58.437Z,99156.28
2022-08-16T22:38:50.528Z,99155.44
2022-08-16T22:41:43.286Z,99161.47
2022-08-16T22:44:29.658Z,99149.44
2022-08-16T22:47:15.768Z,99154.47
2022-08-16T22:50:04.938Z,99160.00
2022-08-16T22:53:04.863Z,99155.44
2022-08-16T22:55:51.489Z,99149.22
2022-08-16T22:58:37.737Z,99155.37
2022-08-16T23:01:26.408Z,99152.34
2022-08-16T23:04:12.551Z,99155.66
2022-08-16T23:06:58.792Z,99157.41
2022-08-16T23:09:45.138Z,99164.50
2022-08-16T23:12:31.637Z,99154.09
2022-08-16T23:15:20.835Z,99159.78
2022-08-16T23:18:10.629Z,99154.09
2022-08-16T23:21:00.279Z,99156.66
2022-08-16T23:23:46.977Z,99156.63
2022-08-16T23:26:44.395Z,99156.00
2022-08-16T23:29:33.647Z,99144.72
2022-08-16T23:32:20.211Z,99157.44
2022-08-16T23:35:06.476Z,99154.31
2022-08-16T23:37:53.645Z,99155.37
2022-08-16T23:40:40.910Z,99165.56
2022-08-16T23:43:31.571Z,99157.19
2022-08-16T23:46:19.514Z,99156.63
2022-08-16T23:50:00.428Z,99159.66
2022-08-16T23:52:12.234Z,99155.84
2022-08-16T23:54:58.470Z,99153.91
2022-08-16T23:57:46.134Z,99162.25
